Bellaire, MI (49615)

8:39 AM EDT on September 03, 2015 (GMT -0400)
Bellaire | | Change Station
CLOSE
Current Station
Personal Weather Station
Location: Bellaire, MI
Elevation: 748 ft
Nearby Weather Stations

Elev 748 ft 44.91 °N, 85.24 °W | Updated 8 minutes ago

Light Rain
Light Rain
64.0 °F
Feels Like 64.0 °F
N
5.0
Wind Variable Wind from South
Gusts 7.0 mph

Today
High -- | Low -- °F
--% Chance of Precip.
Yesterday
High -- | Low -- °F
Precip. -- in
7:04 AM 8:14 PM
Waning Gibbous, 70% visible
Pressure 29.93 in
Visibility 7.0 miles
Clouds Mostly Cloudy 700 ft
Mostly Cloudy 1400 ft
Overcast 3500 ft
Dew Point 62 °F
Humidity 95%
Rainfall 0.74 in
Snow Depth Not available.
UV 0 out of 12
Pollen 9.80 out of 12
Air Quality Not available.
Flu Activity Not available.
METAR KACB 031234Z AUTO 08003KT 7SM -RA BKN007 BKN014 OVC035 19/18 A2993 RMK AO2 T01890178
Pressure 29.93 in
Visibility 7.0 miles
Clouds Mostly Cloudy 700 ft
Mostly Cloudy 1400 ft
Overcast 3500 ft
Dew Point 62 °F
Humidity 95%
Rainfall 0.74 in
Snow Depth Not available.
UV 0 out of 12
Pollen 9.80 out of 12
Air Quality Not available.
Flu Activity Not available.
METAR KACB 031234Z AUTO 08003KT 7SM -RA BKN007 BKN014 OVC035 19/18 A2993 RMK AO2 T01890178
Nowcast | as of 8:00 am EDT on September 3, 2015

At 9 am...thunderstorms. Temperature 67. Light winds. At 11 am...thunderstorms. Temperature 73. Light winds. At 1 PM...thunderstorms. Temperature 79. Light winds. At 3 PM...thunderstorms. Temperature 82. Light winds.

×

10-Day Weather Forecast

×

Almanac

Astronomy

Sep. 03, 2015 Rise Set
Actual Time
Civil Twilight
Nautical Twilight
Astronomical Twilight
Moon
Length of Visible Light
Length of Day
Tomorrow will be .
, % of the Moon is Illuminated

Today's Extremes

State Highs State Lows

Community

WunderPhotos

Upload Photos

1,851,946 photos uploaded!

WunderBlogs® & News

Nearby

Air Quality

  Air Quality AQ Index Pollutant
Not available.

Snow Depth

Station Depth Elevation

Earthquake Activity

City Distance Mag. Time & Date
Minimum magnitude displayed is 2.5.

Coastal Water Temperatures

Place Temperature

Stations

Nearby Weather Stations

Station Location Temp. Windchill Dew Point Humidity Wind Precip. Elev Updated Type